Time;durP1;ratioP1;P1;durP2;ratioP2;P2;SDS_P1;SDS_P2;PMS_P1;PMS_P2;Temp;Humidity;BMP_temperature;BMP_pressure;BME280_temperature;BME280_humidity;BME280_pressure;Samples;Min_cycle;Max_cycle;Signal;HPM_P1;HPM_P2
2022/05/11 00:01:39;;;;;;;9.82;2.03;;;16.80;94.70;;;;;;4995233;28;20459;-70
2022/05/11 00:04:06;;;;;;;3.20;1.40;;;16.80;94.70;;;;;;5012324;28;20022;-70
2022/05/11 00:06:33;;;;;;;1.73;1.50;;;16.70;94.80;;;;;;5012695;28;20022;-70
2022/05/11 00:08:58;;;;;;;2.33;1.70;;;16.70;94.70;;;;;;5012237;28;20081;-71
2022/05/11 00:11:29;;;;;;;3.78;1.75;;;16.70;94.80;;;;;;5001806;28;20050;-70
2022/05/11 00:13:56;;;;;;;3.80;1.95;;;16.70;95.20;;;;;;5012617;28;20037;-70
2022/05/11 00:16:23;;;;;;;4.22;1.60;;;16.70;95.30;;;;;;5012050;28;20014;-70
2022/05/11 00:18:49;;;;;;;2.10;1.38;;;16.60;95.10;;;;;;5012197;28;20046;-70
2022/05/11 00:21:14;;;;;;;2.05;1.40;;;16.70;95.10;;;;;;5011665;28;20048;-70
2022/05/11 00:23:40;;;;;;;2.63;1.77;;;16.60;95.20;;;;;;5012289;28;20026;-70
2022/05/11 00:26:05;;;;;;;4.30;2.10;;;16.60;95.20;;;;;;4997431;28;20404;-70
2022/05/11 00:28:31;;;;;;;2.72;1.83;;;16.60;95.30;;;;;;4992580;28;20419;-70
2022/05/11 00:30:57;;;;;;;2.95;1.92;;;16.60;95.30;;;;;;4992431;28;20030;-70
2022/05/11 00:33:22;;;;;;;2.22;1.70;;;16.60;95.30;;;;;;4992204;28;20041;-70
2022/05/11 00:35:50;;;;;;;5.28;2.75;;;16.60;95.40;;;;;;4992646;28;20030;-70
2022/05/11 00:38:18;;;;;;;3.40;1.90;;;16.60;95.50;;;;;;4992062;28;20487;-70
2022/05/11 00:40:48;;;;;;;4.13;1.67;;;16.60;95.50;;;;;;4992004;28;20030;-70
2022/05/11 00:43:24;;;;;;;3.35;1.98;;;16.60;95.70;;;;;;4995927;28;20030;-70
2022/05/11 00:45:50;;;;;;;4.53;1.85;;;16.60;95.40;;;;;;5009249;28;20099;-70
2022/05/11 00:51:11;;;;;;;2.30;2.08;;;16.50;95.70;;;;;;4991623;28;20492;-70
2022/05/11 00:53:40;;;;;;;2.67;1.60;;;16.60;95.60;;;;;;4991670;28;20101;-70
2022/05/11 00:56:05;;;;;;;3.45;2.50;;;16.50;95.80;;;;;;5005244;28;20418;-70
2022/05/11 00:58:39;;;;;;;3.65;2.10;;;16.50;95.30;;;;;;5011732;28;20025;-70
2022/05/11 01:01:05;;;;;;;4.05;2.42;;;16.50;95.80;;;;;;5011467;28;20030;-70
2022/05/11 01:03:38;;;;;;;5.47;2.85;;;16.50;95.40;;;;;;5011542;28;20030;-70
2022/05/11 01:06:06;;;;;;;2.90;2.50;;;16.40;95.70;;;;;;5011418;28;20495;-70
2022/05/11 01:08:32;;;;;;;3.97;2.20;;;16.40;95.70;;;;;;5011102;28;20289;-70
2022/05/11 01:11:01;;;;;;;3.33;2.53;;;16.50;95.50;;;;;;4999245;28;20454;-70
2022/05/11 01:13:27;;;;;;;3.97;3.03;;;16.40;95.70;;;;;;5001589;28;20054;-70
2022/05/11 01:15:53;;;;;;;4.80;2.78;;;16.20;95.40;;;;;;5011338;28;20022;-70
2022/05/11 01:18:20;;;;;;;5.03;3.35;;;16.40;95.50;;;;;;4993034;28;20048;-70
2022/05/11 01:20:46;;;;;;;5.38;3.63;;;16.40;95.70;;;;;;5011407;28;20021;-70
2022/05/11 01:23:49;;;;;;;4.82;3.13;;;16.40;95.60;;;;;;5010510;28;20065;-70
2022/05/11 01:26:17;;;;;;;3.08;2.78;;;16.50;95.30;;;;;;5010332;28;20471;-70
2022/05/11 01:28:44;;;;;;;4.03;3.35;;;16.40;95.70;;;;;;5010518;28;20037;-70
2022/05/11 01:31:12;;;;;;;4.63;2.85;;;16.40;95.70;;;;;;5009957;28;20080;-70
2022/05/11 01:33:41;;;;;;;3.35;2.63;;;16.30;95.80;;;;;;5010729;28;20038;-70
2022/05/11 01:36:19;;;;;;;3.22;2.92;;;16.30;95.80;;;;;;5010571;28;20537;-70
2022/05/11 01:38:48;;;;;;;5.82;3.28;;;16.40;94.70;;;;;;4993660;28;20035;-70
2022/05/11 01:41:38;;;;;;;4.05;3.33;;;16.40;95.90;;;;;;4991164;28;20038;-70
2022/05/11 01:44:07;;;;;;;3.40;2.55;;;16.40;95.10;;;;;;4991160;28;20023;-70
2022/05/11 01:46:33;;;;;;;3.45;3.08;;;16.40;95.80;;;;;;4991302;28;20026;-70
2022/05/11 01:48:59;;;;;;;3.95;3.40;;;16.30;95.60;;;;;;4990861;28;20039;-70
2022/05/11 01:51:25;;;;;;;5.38;3.10;;;16.30;95.50;;;;;;4990746;28;20027;-70
2022/05/11 01:53:51;;;;;;;3.83;3.42;;;16.30;95.60;;;;;;5007849;28;20116;-70
2022/05/11 01:56:19;;;;;;;4.55;3.50;;;16.30;95.50;;;;;;5010602;28;20018;-70
2022/05/11 01:58:45;;;;;;;4.47;3.50;;;16.30;95.80;;;;;;5010875;28;20108;-70
2022/05/11 02:01:11;;;;;;;4.78;3.83;;;16.20;95.50;;;;;;5010262;28;20097;-70
2022/05/11 02:03:37;;;;;;;4.60;3.55;;;16.10;95.60;;;;;;5010839;28;20022;-70
2022/05/11 02:08:47;;;;;;;5.70;4.03;;;16.20;95.60;;;;;;4994453;28;20073;-70
2022/05/11 02:11:14;;;;;;;5.82;3.58;;;16.20;95.70;;;;;;4990791;28;20050;-70
2022/05/11 02:13:40;;;;;;;5.28;3.50;;;16.20;95.70;;;;;;4991200;28;20030;-70
2022/05/11 02:16:06;;;;;;;8.68;3.53;;;16.10;95.50;;;;;;4990839;28;20080;-70
2022/05/11 02:18:32;;;;;;;7.13;3.47;;;16.20;95.60;;;;;;4991002;28;20070;-70
2022/05/11 02:20:58;;;;;;;3.33;2.95;;;16.10;95.60;;;;;;4990720;28;20056;-70
2022/05/11 02:23:24;;;;;;;8.25;3.47;;;16.20;95.50;;;;;;5002671;28;20034;-70
2022/05/11 02:25:51;;;;;;;4.22;3.83;;;16.20;95.70;;;;;;5009644;28;20057;-70
2022/05/11 02:28:21;;;;;;;4.72;3.50;;;16.10;95.60;;;;;;5009902;28;20045;-70
2022/05/11 02:30:48;;;;;;;6.85;3.50;;;16.10;95.70;;;;;;5010222;28;20022;-70
2022/05/11 02:33:13;;;;;;;6.43;3.35;;;16.10;95.60;;;;;;5010283;28;20176;-70
2022/05/11 02:35:40;;;;;;;3.55;3.22;;;16.10;95.60;;;;;;5010385;28;20053;-70
2022/05/11 02:38:09;;;;;;;4.40;2.92;;;16.20;95.60;;;;;;4999307;28;20181;-70
2022/05/11 02:40:38;;;;;;;3.80;3.45;;;16.10;95.90;;;;;;4991153;28;20038;-70
2022/05/11 02:43:04;;;;;;;6.63;3.97;;;16.10;95.90;;;;;;4991824;28;20026;-70
2022/05/11 02:45:32;;;;;;;4.95;3.55;;;16.20;95.70;;;;;;4994668;28;20018;-70
2022/05/11 02:48:00;;;;;;;4.82;3.47;;;16.10;95.80;;;;;;4994169;28;20038;-70
2022/05/11 02:50:29;;;;;;;4.50;3.80;;;15.90;95.80;;;;;;4994105;28;20320;-70
2022/05/11 02:52:55;;;;;;;7.10;3.50;;;16.10;96.00;;;;;;5002968;28;20402;-70
2022/05/11 02:55:21;;;;;;;4.78;3.97;;;16.00;95.70;;;;;;5013654;28;20034;-70
2022/05/11 02:57:47;;;;;;;6.22;3.70;;;16.10;95.90;;;;;;5013963;28;20084;-70
2022/05/11 03:00:16;;;;;;;4.43;4.03;;;16.10;96.00;;;;;;5013561;28;20026;-70
2022/05/11 03:02:42;;;;;;;6.40;3.97;;;16.10;96.30;;;;;;5006659;28;20479;-70
2022/05/11 03:05:11;;;;;;;4.22;3.83;;;16.00;96.20;;;;;;4993334;28;20250;-70
2022/05/11 03:07:37;;;;;;;4.72;4.05;;;16.00;96.40;;;;;;4994158;28;20041;-70
2022/05/11 03:10:03;;;;;;;4.28;3.88;;;15.80;96.20;;;;;;4976312;28;20022;-70
2022/05/11 03:12:28;;;;;;;6.68;4.25;;;16.00;96.30;;;;;;4992923;28;20125;-71
2022/05/11 03:14:54;;;;;;;7.57;3.90;;;16.00;96.30;;;;;;4994046;28;20058;-70
2022/05/11 03:17:21;;;;;;;7.20;5.18;;;15.90;96.40;;;;;;5011501;28;20485;-70
2022/05/11 03:19:46;;;;;;;5.03;4.32;;;16.00;96.50;;;;;;5012797;28;20041;-70
2022/05/11 03:22:12;;;;;;;7.25;5.28;;;15.90;96.70;;;;;;5013126;28;20032;-70
2022/05/11 03:24:38;;;;;;;6.10;4.18;;;15.90;96.60;;;;;;5013443;28;20489;-70
2022/05/11 03:27:04;;;;;;;5.63;5.05;;;15.90;96.70;;;;;;5012896;28;20076;-70
2022/05/11 03:29:30;;;;;;;4.35;3.95;;;16.00;96.60;;;;;;5013395;28;20049;-70
2022/05/11 03:34:41;;;;;;;;;;;15.80;96.00;;;;;;5013562;28;20040;-70
2022/05/11 03:37:14;;;;;;;4.38;3.85;;;15.80;97.30;;;;;;5012836;28;19925;-70
2022/05/11 03:39:39;;;;;;;7.25;4.22;;;15.90;96.10;;;;;;5013300;28;20018;-70
2022/05/11 03:42:06;;;;;;;6.82;4.05;;;15.90;96.60;;;;;;5012724;28;20021;-71
2022/05/11 03:44:32;;;;;;;8.60;3.88;;;15.40;96.60;;;;;;5013259;28;20042;-70
2022/05/11 03:46:58;;;;;;;5.72;4.10;;;15.80;96.70;;;;;;5012858;28;20056;-70
2022/05/11 03:49:24;;;;;;;5.68;4.03;;;15.90;96.70;;;;;;5012424;28;20814;-70
2022/05/11 03:51:50;;;;;;;5.63;5.03;;;15.90;96.70;;;;;;4998786;28;20087;-71
2022/05/11 03:54:16;;;;;;;7.57;3.85;;;15.90;96.70;;;;;;4992142;28;20034;-70
2022/05/11 03:56:42;;;;;;;7.97;4.18;;;15.90;96.70;;;;;;4993256;28;20110;-70
2022/05/11 03:59:07;;;;;;;5.10;3.75;;;15.90;96.60;;;;;;4992983;28;20121;-70
2022/05/11 04:01:33;;;;;;;5.32;4.82;;;15.90;96.70;;;;;;4993007;28;20048;-70
2022/05/11 04:03:58;;;;;;;6.80;4.53;;;15.90;96.80;;;;;;4992374;28;20089;-70
2022/05/11 04:06:24;;;;;;;4.65;4.07;;;15.90;96.80;;;;;;4992975;28;20076;-70
2022/05/11 04:08:49;;;;;;;5.03;3.92;;;15.90;96.80;;;;;;4993023;28;20034;-70
2022/05/11 04:11:15;;;;;;;7.43;3.55;;;15.80;96.80;;;;;;4992593;28;20030;-70
2022/05/11 04:13:41;;;;;;;5.82;3.97;;;15.80;96.80;;;;;;4992984;28;20431;-70
2022/05/11 04:16:07;;;;;;;6.20;3.97;;;15.90;99.90;;;;;;5002693;28;20530;-70
2022/05/11 04:18:34;;;;;;;4.25;3.63;;;15.90;96.90;;;;;;5011835;28;20045;-70
2022/05/11 04:20:59;;;;;;;5.55;3.42;;;16.00;96.80;;;;;;5012128;28;20117;-70
2022/05/11 04:23:25;;;;;;;4.20;3.78;;;15.90;96.70;;;;;;5012308;28;20115;-70
2022/05/11 04:25:50;;;;;;;4.30;3.20;;;15.90;96.70;;;;;;5012088;28;20068;-70
2022/05/11 04:28:16;;;;;;;5.10;3.85;;;15.90;96.60;;;;;;5011895;28;20045;-70
2022/05/11 04:30:42;;;;;;;4.60;3.67;;;16.10;96.50;;;;;;5012144;28;20113;-70
2022/05/11 04:33:08;;;;;;;3.97;3.17;;;16.00;96.50;;;;;;5011494;28;20030;-70
2022/05/11 04:35:34;;;;;;;5.07;3.22;;;16.00;96.40;;;;;;5012097;28;20034;-70
2022/05/11 04:38:01;;;;;;;4.00;2.95;;;16.00;96.30;;;;;;5000691;28;20026;-70
2022/05/11 04:40:28;;;;;;;3.55;2.78;;;16.10;96.50;;;;;;4992375;28;20097;-70
2022/05/11 04:42:54;;;;;;;6.10;2.78;;;16.10;96.40;;;;;;4992342;28;20026;-71
2022/05/11 04:45:20;;;;;;;5.30;2.85;;;16.20;96.30;;;;;;4991809;28;20109;-70
2022/05/11 04:47:47;;;;;;;8.10;3.67;;;16.10;96.20;;;;;;4991870;28;20475;-70
2022/05/11 04:50:14;;;;;;;5.90;2.67;;;16.20;95.70;;;;;;4991987;28;20026;-70
2022/05/11 04:52:39;;;;;;;5.03;2.83;;;16.20;96.20;;;;;;4996356;28;20482;-70
2022/05/11 04:55:09;;;;;;;3.70;2.55;;;16.30;95.90;;;;;;5011015;28;20029;-70
2022/05/11 04:57:35;;;;;;;2.95;1.63;;;16.30;96.00;;;;;;5011515;28;20068;-70
2022/05/11 05:00:02;;;;;;;4.55;3.08;;;16.40;95.90;;;;;;5011042;28;20042;-70
2022/05/11 05:02:28;;;;;;;3.92;2.88;;;16.40;95.80;;;;;;4994019;28;20026;-70
2022/05/11 05:05:01;;;;;;;4.72;2.70;;;16.30;95.70;;;;;;5011541;28;20498;-70
2022/05/11 05:07:27;;;;;;;2.90;2.38;;;16.30;95.50;;;;;;5005178;28;20395;-70
2022/05/11 05:09:53;;;;;;;6.07;2.97;;;16.20;95.80;;;;;;4991944;28;20092;-70
2022/05/11 05:12:19;;;;;;;4.20;2.65;;;16.30;95.70;;;;;;4974068;28;20031;-70
2022/05/11 05:14:44;;;;;;;7.43;2.92;;;16.30;95.70;;;;;;4991393;28;20061;-70
2022/05/11 05:17:12;;;;;;;2.83;2.30;;;16.40;95.50;;;;;;5007366;28;20022;-70
2022/05/11 05:19:40;;;;;;;2.65;2.03;;;16.40;95.70;;;;;;5010786;28;20065;-70
2022/05/11 05:22:06;;;;;;;3.78;2.72;;;16.50;95.60;;;;;;5011246;28;20022;-70
2022/05/11 05:24:32;;;;;;;3.65;2.83;;;16.50;95.30;;;;;;5011067;28;20036;-70
2022/05/11 05:26:58;;;;;;;11.63;3.63;;;16.60;95.40;;;;;;5011014;28;20018;-70
2022/05/11 05:32:08;;;;;;;4.10;2.85;;;16.60;95.20;;;;;;5009707;28;20044;-70
2022/05/11 05:34:34;;;;;;;4.60;2.40;;;16.50;95.30;;;;;;5010884;28;20029;-70
2022/05/11 05:36:59;;;;;;;2.50;2.30;;;16.50;95.30;;;;;;5010364;28;20025;-69
2022/05/11 05:39:25;;;;;;;2.60;2.40;;;16.60;95.30;;;;;;5010815;28;20113;-70
2022/05/11 05:41:52;;;;;;;4.05;3.25;;;16.70;95.30;;;;;;5010747;28;20022;-69
2022/05/11 05:44:18;;;;;;;3.28;2.28;;;16.70;95.20;;;;;;5010134;28;20390;-69
2022/05/11 05:46:44;;;;;;;7.75;3.53;;;16.80;95.10;;;;;;5010832;28;20075;-70
2022/05/11 05:49:10;;;;;;;3.22;2.47;;;16.80;95.00;;;;;;5010423;28;20029;-70
2022/05/11 05:51:37;;;;;;;4.88;2.72;;;16.90;95.10;;;;;;5008618;28;20041;-70
2022/05/11 05:54:03;;;;;;;3.22;2.65;;;16.90;95.00;;;;;;5010414;28;20033;-70
2022/05/11 05:56:28;;;;;;;3.45;2.55;;;17.00;94.70;;;;;;5009349;28;20449;-71
2022/05/11 05:58:58;;;;;;;3.00;2.25;;;17.20;94.50;;;;;;5009573;28;20029;-70
2022/05/11 06:01:24;;;;;;;2.67;2.13;;;17.40;94.40;;;;;;5010647;28;20033;-71
2022/05/11 06:03:51;;;;;;;9.45;3.38;;;17.30;94.30;;;;;;5010705;28;20471;-71
2022/05/11 06:06:16;;;;;;;5.05;2.55;;;17.30;93.90;;;;;;5010381;28;20034;-71
2022/05/11 06:08:42;;;;;;;2.97;2.05;;;17.40;93.80;;;;;;5009184;28;20041;-70
2022/05/11 06:11:08;;;;;;;6.97;1.85;;;17.50;93.60;;;;;;5010205;28;20092;-71
2022/05/11 06:13:34;;;;;;;4.28;2.67;;;17.50;93.50;;;;;;5010263;28;20062;-71
2022/05/11 06:16:00;;;;;;;3.15;2.67;;;17.40;93.40;;;;;;5003182;28;20117;-71
2022/05/11 06:18:26;;;;;;;5.78;2.80;;;17.30;93.20;;;;;;4992835;28;20471;-70
2022/05/11 06:20:52;;;;;;;4.22;2.75;;;17.30;93.50;;;;;;5007703;28;20108;-70
2022/05/11 06:23:19;;;;;;;6.13;2.17;;;16.80;99.90;;;;;;5012540;28;20121;-70
2022/05/11 06:25:45;;;;;;;3.53;2.60;;;17.20;93.50;;;;;;5014237;28;20478;-70
2022/05/11 06:28:11;;;;;;;3.00;2.17;;;17.30;93.10;;;;;;5013590;28;20117;-70
2022/05/11 06:30:36;;;;;;;2.95;1.67;;;17.20;93.00;;;;;;5011889;28;20113;-70
2022/05/11 06:33:03;;;;;;;3.72;2.13;;;17.20;93.00;;;;;;5013272;28;20037;-70
2022/05/11 06:35:29;;;;;;;2.42;1.70;;;17.50;92.90;;;;;;5014159;28;20022;-70
2022/05/11 06:37:55;;;;;;;5.95;1.77;;;17.60;92.50;;;;;;4996646;28;20087;-70
2022/05/11 06:40:21;;;;;;;3.30;1.40;;;17.80;91.90;;;;;;5013831;28;20529;-70
2022/05/11 06:42:48;;;;;;;3.80;1.70;;;17.90;91.80;;;;;;5013607;28;20026;-71
2022/05/11 06:45:15;;;;;;;3.97;1.15;;;18.10;91.10;;;;;;5013170;28;20040;-70
2022/05/11 06:47:40;;;;;;;3.75;1.52;;;18.20;90.70;;;;;;4991791;28;20056;-71
2022/05/11 06:50:07;;;;;;;4.60;1.80;;;18.20;90.30;;;;;;4993830;28;20476;-71
2022/05/11 06:52:32;;;;;;;3.53;1.67;;;18.30;89.90;;;;;;4994868;28;20022;-70
2022/05/11 07:00:31;;;;;;;2.10;1.27;;;18.30;87.20;;;;;;5013738;28;20482;-70
2022/05/11 07:02:57;;;;;;;4.45;1.88;;;18.20;89.40;;;;;;5014113;28;20022;-70
2022/05/11 07:05:23;;;;;;;5.18;1.35;;;18.20;88.30;;;;;;5010447;28;20076;-69
2022/05/11 07:07:51;;;;;;;3.50;1.70;;;18.20;88.30;;;;;;5012002;28;20044;-71
2022/05/11 07:10:17;;;;;;;5.82;1.48;;;19.60;89.70;;;;;;5011353;28;20022;-70
2022/05/11 07:12:48;;;;;;;3.28;1.63;;;18.20;88.30;;;;;;5010062;28;20034;-70
2022/05/11 07:15:16;;;;;;;3.15;1.58;;;18.30;86.40;;;;;;5013355;28;20030;-71
2022/05/11 07:17:50;;;;;;;6.05;1.15;;;18.40;87.90;;;;;;5013405;28;20638;-71
2022/05/11 07:20:24;;;;;;;4.10;1.63;;;18.80;85.50;;;;;;5011952;28;20042;-71
2022/05/11 07:22:50;;;;;;;3.08;1.25;;;18.90;86.00;;;;;;4976326;28;20040;-71
2022/05/11 07:25:18;;;;;;;3.65;0.80;;;19.00;83.20;;;;;;5007016;28;20030;-71
2022/05/11 07:27:44;;;;;;;3.22;0.90;;;19.10;82.30;;;;;;4992357;28;20522;-70
2022/05/11 07:30:14;;;;;;;3.53;1.10;;;18.90;79.70;;;;;;5000053;28;20096;-71
2022/05/11 07:32:39;;;;;;;3.22;0.70;;;18.90;80.60;;;;;;5011483;28;20034;-71
2022/05/11 07:35:06;;;;;;;5.75;0.80;;;18.80;80.60;;;;;;5012540;28;20394;-71
2022/05/11 07:37:31;;;;;;;2.78;0.60;;;18.80;80.40;;;;;;5012686;28;20140;-71
2022/05/11 07:39:59;;;;;;;3.90;1.08;;;18.80;80.20;;;;;;5012464;28;20120;-71
2022/05/11 07:42:25;;;;;;;4.93;1.20;;;19.00;79.60;;;;;;5012168;28;20045;-71
2022/05/11 07:44:50;;;;;;;4.82;1.23;;;19.00;79.80;;;;;;5012910;28;20030;-71
2022/05/11 07:47:16;;;;;;;3.95;1.38;;;19.10;79.20;;;;;;5012311;28;20036;-71
2022/05/11 07:49:42;;;;;;;4.28;0.82;;;19.10;79.30;;;;;;5011601;28;20026;-71
2022/05/11 07:52:08;;;;;;;4.25;1.15;;;19.20;78.80;;;;;;5012138;28;20056;-71
2022/05/11 07:54:34;;;;;;;3.67;1.02;;;19.20;79.10;;;;;;4994647;28;20037;-70
2022/05/11 07:59:56;;;;;;;5.60;1.35;;;19.10;77.20;;;;;;5012728;28;20391;-71
2022/05/11 08:02:28;;;;;;;2.13;0.60;;;19.10;77.00;;;;;;4992552;28;20081;-71
2022/05/11 08:04:59;;;;;;;4.03;0.75;;;19.10;76.80;;;;;;4992977;28;20032;-71
2022/05/11 08:07:29;;;;;;;3.53;1.00;;;18.90;79.40;;;;;;4992794;28;20451;-71
2022/05/11 08:09:59;;;;;;;4.85;0.98;;;18.80;79.40;;;;;;5007671;28;20071;-71
2022/05/11 08:12:25;;;;;;;6.20;0.93;;;18.70;80.10;;;;;;5012268;28;20482;-71
2022/05/11 08:14:50;;;;;;;1.38;0.60;;;18.50;79.80;;;;;;5012129;28;20040;-71
2022/05/11 08:17:26;;;;;;;5.03;0.70;;;18.50;78.90;;;;;;5009145;28;20517;-71
2022/05/11 08:19:52;;;;;;;5.47;0.88;;;18.50;77.40;;;;;;5011258;28;20085;-70
2022/05/11 08:22:18;;;;;;;4.35;0.55;;;18.30;78.70;;;;;;4989322;28;20054;-71
2022/05/11 08:24:45;;;;;;;2.85;0.85;;;18.40;79.20;;;;;;4997775;28;20530;-70
2022/05/11 08:27:11;;;;;;;2.53;0.60;;;18.40;79.00;;;;;;5008978;28;20109;-71
2022/05/11 08:35:05;;;;;;;;;;;18.30;77.90;;;;;;5012109;28;20530;-71
2022/05/11 08:37:31;;;;;;;2.00;0.80;;;18.50;80.40;;;;;;5011526;28;19905;-71
2022/05/11 08:39:56;;;;;;;5.28;0.70;;;18.60;79.50;;;;;;5011142;28;20022;-71
2022/05/11 08:42:25;;;;;;;3.45;0.70;;;18.70;79.60;;;;;;5010613;28;20173;-71
2022/05/11 08:44:51;;;;;;;4.45;1.33;;;18.70;79.70;;;;;;5009347;28;20022;-72
2022/05/11 08:47:39;;;;;;;3.92;0.60;;;18.70;78.90;;;;;;4992251;28;20387;-71
2022/05/11 08:50:26;;;;;;;3.03;1.15;;;19.00;78.50;;;;;;5010719;28;20029;-71
2022/05/11 08:52:59;;;;;;;4.03;0.80;;;19.10;80.80;;;;;;5008414;28;20537;-71
2022/05/11 08:55:46;;;;;;;4.75;1.15;;;19.10;80.40;;;;;;5010759;28;20040;-71
2022/05/11 08:58:31;;;;;;;6.85;1.27;;;19.20;77.70;;;;;;5008834;28;20061;-71
2022/05/11 09:00:58;;;;;;;2.90;0.85;;;19.30;78.00;;;;;;5010846;28;20525;-71
2022/05/11 09:03:41;;;;;;;6.45;1.80;;;19.30;79.20;;;;;;5008131;28;20013;-71
2022/05/11 09:06:18;;;;;;;5.68;1.02;;;19.40;77.70;;;;;;5007711;28;20025;-71
2022/05/11 09:08:44;;;;;;;5.82;1.38;;;19.40;79.30;;;;;;5006563;28;20072;-71
2022/05/11 09:11:13;;;;;;;4.10;0.80;;;19.30;78.50;;;;;;5010393;28;20056;-71
2022/05/11 09:13:42;;;;;;;6.82;1.30;;;19.50;79.10;;;;;;5010137;28;20040;-71
2022/05/11 09:16:34;;;;;;;5.40;1.23;;;19.50;78.90;;;;;;5010155;28;20462;-71
2022/05/11 09:19:10;;;;;;;4.22;0.93;;;19.50;79.00;;;;;;5010441;28;20125;-71
2022/05/11 09:21:38;;;;;;;4.90;1.05;;;19.60;79.20;;;;;;5011010;28;20049;-72
2022/05/11 09:24:21;;;;;;;5.88;1.65;;;19.60;78.70;;;;;;5011031;28;20038;-71
2022/05/11 09:27:02;;;;;;;5.65;1.48;;;19.70;77.00;;;;;;5011401;28;20032;-71
2022/05/11 09:29:40;;;;;;;5.43;1.08;;;19.60;78.80;;;;;;5010585;28;20038;-71
2022/05/11 09:32:21;;;;;;;4.13;0.90;;;19.70;76.80;;;;;;5010948;28;20030;-69
2022/05/11 09:34:47;;;;;;;4.68;1.15;;;19.70;78.80;;;;;;5003140;28;20116;-70
2022/05/11 09:37:34;;;;;;;2.95;1.88;;;19.50;77.90;;;;;;5006632;28;20073;-71
2022/05/11 09:40:17;;;;;;;4.32;1.05;;;19.70;77.20;;;;;;4989952;28;20085;-71
2022/05/11 09:43:04;;;;;;;5.50;1.90;;;19.80;76.90;;;;;;4991385;28;20030;-71
2022/05/11 09:45:40;;;;;;;3.03;1.38;;;19.80;78.60;;;;;;4973893;28;20042;-70
2022/05/11 09:48:22;;;;;;;3.63;1.10;;;19.90;78.30;;;;;;4993020;28;20467;-71
2022/05/11 09:50:54;;;;;;;4.13;1.58;;;20.00;76.60;;;;;;4997823;28;20030;-71
2022/05/11 09:53:33;;;;;;;4.03;1.48;;;19.90;78.00;;;;;;5001914;28;20494;-71
2022/05/11 09:56:26;;;;;;;4.65;1.27;;;19.90;76.70;;;;;;5010587;28;20407;-71
2022/05/11 09:58:52;;;;;;;4.88;1.73;;;20.10;76.70;;;;;;5010072;28;20030;-71
2022/05/11 10:01:27;;;;;;;2.17;1.25;;;20.00;77.50;;;;;;4992768;28;20110;-71
2022/05/11 10:04:03;;;;;;;3.72;1.50;;;20.20;76.60;;;;;;4993087;28;20030;-71
2022/05/11 10:06:34;;;;;;;5.43;1.48;;;20.20;78.20;;;;;;5010402;28;20033;-71
2022/05/11 10:09:01;;;;;;;6.40;1.92;;;20.20;78.10;;;;;;5010521;28;20041;-71
2022/05/11 10:11:43;;;;;;;6.70;2.00;;;20.10;77.50;;;;;;5010928;28;20022;-71
2022/05/11 10:23:05;;;;;;;2.47;1.10;;;20.50;76.50;;;;;;5010850;28;20510;-70
2022/05/11 10:25:40;;;;;;;6.30;1.60;;;20.50;75.40;;;;;;5010699;28;20109;-71
2022/05/11 10:28:31;;;;;;;4.20;1.65;;;20.50;74.60;;;;;;5010510;28;20149;-71
2022/05/11 10:31:23;;;;;;;3.78;2.17;;;20.60;74.50;;;;;;4992889;28;20057;-70
2022/05/11 10:34:07;;;;;;;3.58;1.77;;;20.60;74.70;;;;;;4989811;28;20038;-71
2022/05/11 10:36:35;;;;;;;;;;;20.70;74.50;;;;;;4991418;28;20109;-71
2022/05/11 10:39:15;;;;;;;4.20;1.10;;;20.60;74.60;;;;;;4990548;28;19906;-71
2022/05/11 10:41:51;;;;;;;4.43;1.20;;;20.60;75.70;;;;;;4990943;28;20112;-70
2022/05/11 10:44:52;;;;;;;2.92;0.65;;;20.60;72.90;;;;;;4990770;28;20023;-71
2022/05/11 10:47:45;;;;;;;3.58;1.33;;;20.60;73.30;;;;;;4990545;28;20522;-71
2022/05/11 10:50:48;;;;;;;3.03;1.00;;;20.60;72.60;;;;;;4990239;28;20045;-71
2022/05/11 10:53:27;;;;;;;2.70;0.90;;;20.60;72.40;;;;;;4990678;28;20022;-70
2022/05/11 10:56:13;;;;;;;6.85;1.30;;;20.30;73.80;;;;;;4989452;28;20058;-71
2022/05/11 10:58:42;;;;;;;6.20;1.42;;;20.50;72.00;;;;;;4990810;28;20093;-71
2022/05/11 11:01:15;;;;;;;3.35;1.13;;;20.60;70.50;;;;;;4990554;28;20074;-71
2022/05/11 11:04:08;;;;;;;4.88;1.13;;;20.40;71.40;;;;;;4991283;28;20380;-71
2022/05/11 11:09:42;;;;;;;3.58;1.50;;;20.60;72.00;;;;;;4994139;28;20124;-71
2022/05/11 11:12:27;;;;;;;2.95;0.82;;;20.70;71.50;;;;;;4993783;28;20037;-71
2022/05/11 11:14:55;;;;;;;8.77;1.92;;;19.40;72.50;;;;;;4993826;28;20383;-71
2022/05/11 11:17:23;;;;;;;2.97;0.80;;;20.80;72.10;;;;;;4993414;28;20070;-71
2022/05/11 11:19:52;;;;;;;1.73;0.57;;;20.70;72.20;;;;;;4998122;28;20053;-71
2022/05/11 11:22:18;;;;;;;2.58;0.75;;;20.80;72.40;;;;;;5013043;28;20455;-71
2022/05/11 11:25:10;;;;;;;4.78;2.33;;;20.80;72.00;;;;;;5012340;28;20045;-71
2022/05/11 11:28:03;;;;;;;5.43;0.95;;;21.00;70.60;;;;;;5013423;28;20480;-70
2022/05/11 11:30:29;;;;;;;5.00;1.15;;;21.00;70.30;;;;;;5013209;28;20033;-70
2022/05/11 11:33:28;;;;;;;3.65;0.82;;;20.90;71.30;;;;;;5008047;28;20026;-71
2022/05/11 11:36:16;;;;;;;2.38;0.73;;;21.00;70.20;;;;;;5000983;28;20044;-71
2022/05/11 11:38:44;;;;;;;3.65;0.70;;;21.00;70.40;;;;;;5011884;28;20088;-70
2022/05/11 11:41:21;;;;;;;3.13;0.80;;;21.00;69.00;;;;;;5012243;28;20448;-71
2022/05/11 11:43:59;;;;;;;3.50;0.60;;;20.80;71.70;;;;;;5012784;28;20034;-72
2022/05/11 11:46:34;;;;;;;3.13;0.90;;;21.00;69.90;;;;;;5011999;28;20025;-71
2022/05/11 11:49:33;;;;;;;2.10;1.08;;;21.00;72.10;;;;;;5012258;28;20128;-71
2022/05/11 11:52:05;;;;;;;4.47;0.88;;;21.00;70.30;;;;;;4993331;28;20026;-71
2022/05/11 11:54:43;;;;;;;4.97;1.45;;;21.10;71.50;;;;;;4993301;28;20019;-71
2022/05/11 11:57:16;;;;;;;4.70;1.00;;;21.10;69.70;;;;;;4992949;28;20455;-71
2022/05/11 11:59:44;;;;;;;6.72;1.55;;;21.10;71.80;;;;;;4993233;28;20513;-72
2022/05/11 12:02:34;;;;;;;3.42;0.90;;;21.10;71.20;;;;;;5004512;28;20360;-71
2022/05/11 12:05:07;;;;;;;3.03;0.70;;;21.30;70.20;;;;;;5009149;28;20040;-71
2022/05/11 12:16:13;;;;;;;7.30;0.70;;;21.40;69.40;;;;;;4991432;28;20041;-72
2022/05/11 12:18:41;;;;;;;3.78;1.20;;;21.60;70.60;;;;;;4992922;28;20289;-72
2022/05/11 12:21:22;;;;;;;4.38;1.42;;;21.60;70.70;;;;;;5000253;28;20030;-72
2022/05/11 12:23:50;;;;;;;5.10;1.30;;;21.70;70.60;;;;;;5009427;28;20034;-72
2022/05/11 12:26:25;;;;;;;6.90;1.80;;;21.70;69.90;;;;;;5010975;28;20033;-71
2022/05/11 12:29:54;;;;;;;4.72;1.98;;;21.70;70.30;;;;;;5011298;28;20034;-72
2022/05/11 12:31:37;;;;;;;4.60;1.33;;;21.70;70.00;;;;;;5010726;28;20061;-73
2022/05/11 12:34:05;;;;;;;2.50;1.50;;;21.80;70.40;;;;;;5010166;28;20053;-73
2022/05/11 12:36:36;;;;;;;4.28;1.27;;;21.80;70.60;;;;;;5011610;28;20068;-73
2022/05/11 12:39:02;;;;;;;6.00;1.55;;;21.90;70.10;;;;;;5010487;28;20099;-74
2022/05/11 12:41:28;;;;;;;7.03;1.85;;;21.90;69.30;;;;;;5011156;28;20026;-73
2022/05/11 12:44:12;;;;;;;5.32;1.80;;;22.00;69.60;;;;;;5011263;28;20067;-73
2022/05/11 12:46:41;;;;;;;4.95;1.73;;;21.90;68.80;;;;;;5010014;28;20061;-73
2022/05/11 12:49:14;;;;;;;8.68;1.42;;;22.10;69.80;;;;;;5010483;28;20096;-73
2022/05/11 12:51:51;;;;;;;4.75;1.30;;;22.20;70.00;;;;;;5011984;28;20033;-72
2022/05/11 12:54:19;;;;;;;8.85;1.92;;;22.30;70.10;;;;;;5008203;28;20037;-72
2022/05/11 12:57:02;;;;;;;6.30;1.83;;;22.30;69.20;;;;;;5011624;28;20030;-72
2022/05/11 12:59:29;;;;;;;3.70;1.73;;;22.40;67.60;;;;;;4994262;28;20068;-72
2022/05/11 13:02:16;;;;;;;4.82;1.75;;;22.50;68.80;;;;;;5007224;28;20033;-72
2022/05/11 13:04:53;;;;;;;3.28;1.17;;;22.60;67.40;;;;;;5011229;28;20386;-72
2022/05/11 13:07:28;;;;;;;4.75;1.80;;;22.60;69.00;;;;;;5001760;28;20100;-72
2022/05/11 13:09:58;;;;;;;6.80;2.70;;;22.80;66.80;;;;;;5006907;28;20032;-71
2022/05/11 13:12:25;;;;;;;5.93;1.73;;;22.70;68.00;;;;;;5010875;28;20018;-72
2022/05/11 13:14:54;;;;;;;6.72;2.38;;;22.80;68.80;;;;;;5010780;28;20531;-73
2022/05/11 13:17:43;;;;;;;7.78;2.30;;;22.80;69.40;;;;;;5011285;28;20053;-73
2022/05/11 13:20:18;;;;;;;7.85;2.55;;;22.80;70.70;;;;;;5010290;28;20049;-72
2022/05/11 13:23:00;;;;;;;10.20;2.90;;;22.60;70.60;;;;;;5010731;28;20026;-72
2022/05/11 13:25:46;;;;;;;5.72;2.05;;;22.70;71.00;;;;;;5010335;28;20541;-72
2022/05/11 13:28:26;;;;;;;3.90;1.77;;;23.90;70.80;;;;;;4973237;28;20376;-72
2022/05/11 13:30:56;;;;;;;5.05;3.03;;;23.10;68.80;;;;;;5005706;28;20038;-73
2022/05/11 13:33:40;;;;;;;3.72;1.88;;;22.80;69.60;;;;;;5010649;28;20065;-71
2022/05/11 13:36:11;;;;;;;4.22;1.90;;;22.90;67.60;;;;;;5010836;28;20097;-71
2022/05/11 13:38:38;;;;;;;3.03;1.27;;;23.00;69.10;;;;;;5010211;28;20076;-71
2022/05/11 13:41:05;;;;;;;5.18;2.08;;;22.90;69.20;;;;;;5010861;28;20033;-71
2022/05/11 13:43:34;;;;;;;4.53;1.10;;;23.00;68.90;;;;;;5009554;28;20102;-71
2022/05/11 13:46:09;;;;;;;6.68;1.63;;;23.20;68.50;;;;;;4999051;28;20109;-71
2022/05/11 13:48:39;;;;;;;4.70;2.00;;;23.40;68.60;;;;;;4994913;28;20070;-71
2022/05/11 13:51:25;;;;;;;4.57;1.90;;;23.60;67.70;;;;;;4993390;28;20433;-72